Latest Weather Observations for Perisher Valley

IDN60901

Issued at 7:55 pm EDT Saturday 29 November 2014 (issued every 10 minutes, with the page automatically refreshed every 10 minutes)

About weather observations | Map of Canberra area stations | Latest observations for Canberra area | Other Formats
Station Details ID: 071075 Name: PERISHER VALLEY AWS Lat: -36.41 Lon: 148.41 Height: 1738.0 m
Data from the previous 72 hours. | See also: Recent months at Perisher Valley
Date/Time
EDT
Tmp

°C
App
Tmp
°C
Dew
Point
°C
Rel
Hum
%
Delta-T

°C
Wind Press
QNH
hPa
Press
MSL
hPa
Rain
since
9 am
mm
Dir
 
Spd
km/h
Gust
km/h
Spd
kts
Gust
kts
29/07:30pm 14.3 12.7 4.6 52 5.0 WSW 2 7 1 4 - - 0.0
29/07:00pm 16.4 14.0 5.1 47 5.9 W 7 17 4 9 - - 0.0
29/06:30pm 17.1 14.7 4.4 43 6.6 W 6 13 3 7 - - 0.0
29/06:00pm 17.1 14.7 4.1 42 6.7 WNW 6 17 3 9 - - 0.0
29/05:30pm 17.1 14.7 4.4 43 6.6 W 6 13 3 7 - - 0.0
29/05:00pm 17.7 15.2 5.0 43 6.7 W 7 19 4 10 - - 0.0
29/04:30pm 17.8 15.2 4.4 41 7.0 WNW 7 24 4 13 - - 0.0
29/04:00pm 17.1 13.3 4.1 42 6.7 W 13 24 7 13 - - 0.0
29/03:30pm 17.5 13.4 4.1 41 6.9 WNW 15 26 8 14 - - 0.0
29/03:00pm 16.2 12.2 2.9 41 6.7 W 13 26 7 14 - - 0.0
29/02:30pm 16.6 12.2 4.6 45 6.2 W 17 33 9 18 - - 0.0
29/02:00pm 16.6 12.9 4.6 45 6.2 W 13 30 7 16 - - 0.0
29/01:30pm 16.6 12.5 6.1 50 5.6 W 17 28 9 15 - - 0.0
29/01:00pm 16.0 12.6 5.9 51 5.4 W 13 26 7 14 - - 0.0
29/12:30pm 15.7 11.9 5.9 52 5.2 W 15 32 8 17 - - 0.0
29/12:00pm 15.6 12.8 6.9 56 4.7 W 11 22 6 12 - - 0.0
29/11:30am 15.1 12.6 6.7 57 4.5 W 9 24 5 13 - - 0.0
29/11:00am 14.8 11.7 7.4 61 4.0 W 13 30 7 16 - - 0.0
29/10:30am 14.6 11.3 6.4 58 4.4 W 13 32 7 17 - - 0.0
29/10:00am 14.8 12.1 5.6 54 4.8 WNW 9 24 5 13 - - 0.0
29/09:30am 14.4 11.7 5.5 55 4.6 W 9 24 5 13 - - 0.0
29/09:00am 13.7 10.0 4.3 53 4.8 W 13 33 7 18 - - 0.0
29/08:30am 13.2 9.4 3.8 53 4.7 WNW 13 28 7 15 - - 0.0
29/08:00am 12.6 8.6 3.0 52 4.7 WNW 13 24 7 13 - - 0.0
29/07:30am 12.4 8.9 3.6 55 4.3 WNW 11 24 6 13 - - 0.0
29/07:00am 11.2 8.1 3.7 60 3.7 WNW 9 22 5 12 - - 0.0
29/06:30am 9.3 7.0 4.9 74 2.2 W 6 17 3 9 - - 0.0
29/06:00am 4.8 2.2 3.3 90 0.7 W 6 15 3 8 - - 0.0
29/05:30am 2.4 0.7 1.7 95 0.3 CALM 0 4 0 2 - - 0.0
29/05:00am 3.1 1.5 2.5 96 0.3 CALM 0 4 0 2 - - 0.0
29/04:30am 3.0 1.4 2.4 96 0.3 CALM 0 4 0 2 - - 0.0
29/04:00am 3.8 1.2 3.4 97 0.2 SW 6 9 3 5 - - 0.0
29/03:30am 4.0 1.8 3.6 97 0.2 SW 4 9 2 5 - - 0.0
29/03:00am 3.9 2.1 3.5 97 0.2 SW 2 7 1 4 - - 0.0
29/02:30am 3.9 2.5 3.3 96 0.3 CALM 0 2 0 1 - - 0.0
29/02:00am 4.3 2.9 3.4 94 0.4 CALM 0 0 0 0 - - 0.0
29/01:30am 5.4 4.2 4.4 93 0.5 CALM 0 2 0 1 - - 0.0
29/01:00am 6.5 5.4 5.0 90 0.7 CALM 0 0 0 0 - - 0.0
29/12:30am 8.3 7.6 6.9 91 0.7 CALM 0 0 0 0 - - 0.0
29/12:00am 8.6 7.9 7.1 90 0.8 CALM 0 2 0 1 - - 0.0
 
Date/Time
EDT
Tmp

°C
App
Tmp
°C
Dew
Point
°C
Rel
Hum
%
Delta-T

°C
Wind Press
QNH
hPa
Press
MSL
hPa
Rain
since
9 am
mm
Dir
 
Spd
km/h
Gust
km/h
Spd
kts
Gust
kts
28/11:30pm 9.3 8.4 7.7 90 0.8 NNE 2 6 1 3 - - 0.0
28/11:00pm 9.3 7.7 8.1 92 0.6 NE 6 7 3 4 - - 0.0
28/10:30pm 9.4 8.2 8.2 92 0.6 E 4 6 2 3 - - 0.0
28/10:00pm 9.8 9.4 8.2 90 0.9 CALM 0 2 0 1 - - 0.0
28/09:30pm 9.9 8.2 8.5 91 0.8 E 7 13 4 7 - - 0.0
28/09:00pm 10.5 8.9 8.6 88 1.0 E 7 13 4 7 - - 0.0
28/08:30pm 11.3 9.9 8.7 84 1.4 ESE 6 19 3 10 - - 0.0
28/08:00pm 12.1 10.9 8.0 76 2.2 E 4 13 2 7 - - 0.0
28/07:30pm 12.7 11.4 7.6 71 2.7 ESE 4 20 2 11 - - 0.0
28/07:00pm 13.9 12.9 5.8 58 4.2 CALM 0 4 0 2 - - 0.0
28/06:30pm 14.6 13.1 5.1 53 4.9 W 2 6 1 3 - - 0.0
28/06:00pm 14.5 12.6 4.8 52 5.0 W 4 9 2 5 - - 0.0
28/05:30pm 15.2 12.9 4.9 50 5.3 W 6 9 3 5 - - 0.0
28/05:00pm 16.4 14.0 5.4 48 5.8 W 7 13 4 7 - - 0.0
28/04:30pm 15.0 12.9 4.1 48 5.5 W 4 15 2 8 - - 0.0
28/04:00pm 15.5 13.7 3.6 45 6.0 W 2 6 1 3 - - 0.0
28/03:30pm 15.4 13.2 3.5 45 6.0 SE 4 7 2 4 - - 0.0
28/03:00pm 16.4 14.3 4.1 44 6.3 SSW 4 9 2 5 - - 0.0
28/02:30pm 16.6 14.0 4.3 44 6.3 NNW 7 17 4 9 - - 0.0
28/02:00pm 16.4 13.8 3.1 41 6.7 NW 6 15 3 8 - - 0.0
28/01:30pm 15.4 11.9 1.5 39 6.7 NW 9 17 5 9 - - 0.0
28/01:00pm 15.5 12.3 3.0 43 6.2 NNE 9 20 5 11 - - 0.0
28/12:30pm 15.1 12.5 3.3 45 5.9 WSW 6 17 3 9 - - 0.0
28/12:00pm 14.6 11.1 3.7 48 5.5 W 11 22 6 12 - - 0.0
28/11:30am 14.7 11.6 3.8 48 5.5 W 9 26 5 14 - - 0.0
28/11:00am 14.0 11.3 5.4 56 4.5 W 9 20 5 11 - - 0.0
28/10:30am 13.7 11.2 4.6 54 4.6 WNW 7 19 4 10 - - 0.0
28/10:00am 12.6 8.7 3.6 54 4.5 W 13 30 7 16 - - 0.0
28/09:30am 12.5 9.4 3.5 54 4.4 W 9 19 5 10 - - 0.0
28/09:00am 13.5 10.8 3.8 52 4.9 SW 7 28 4 15 - - 0.0
28/08:30am 13.6 10.6 3.9 52 4.9 SW 9 28 5 15 - - 0.0
28/08:00am 12.6 10.0 6.0 64 3.4 SSW 9 17 5 9 - - 0.0
28/07:30am 11.1 9.3 7.0 76 2.2 S 6 15 3 8 - - 0.0
28/07:00am 6.4 5.1 4.1 85 1.1 CALM 0 2 0 1 - - 0.0
28/06:30am 4.0 2.6 3.3 95 0.3 CALM 0 0 0 0 - - 0.0
28/06:00am 1.6 -0.6 0.9 95 0.3 SW 2 2 1 1 - - 0.0
28/05:30am 1.8 0.0 1.1 95 0.3 CALM 0 0 0 0 - - 0.0
28/05:00am 2.0 0.2 1.1 94 0.4 CALM 0 0 0 0 - - 0.0
28/04:30am 1.7 -0.2 0.7 93 0.4 CALM 0 0 0 0 - - 0.0
28/04:00am 1.7 -0.6 0.4 91 0.5 W 2 4 1 2 - - 0.0
28/03:30am 3.6 2.1 2.9 95 0.3 CALM 0 2 0 1 - - 0.0
28/03:00am 4.2 2.7 3.2 93 0.5 CALM 0 2 0 1 - - 0.0
28/02:30am 4.7 3.0 4.0 95 0.3 NW 2 6 1 3 - - 0.0
28/02:00am 5.3 4.0 4.3 93 0.5 CALM 0 4 0 2 - - 0.0
28/01:30am 5.9 4.4 4.9 93 0.5 NE 2 7 1 4 - - 0.0
28/01:00am 6.1 4.2 5.1 93 0.5 NNE 4 6 2 3 - - 0.0
28/12:30am 6.1 4.5 4.7 91 0.7 NW 2 7 1 4 - - 0.0
28/12:00am 6.2 4.6 4.7 90 0.7 N 2 4 1 2 - - 0.0
 
Date/Time
EDT
Tmp

°C
App
Tmp
°C
Dew
Point
°C
Rel
Hum
%
Delta-T

°C
Wind Press
QNH
hPa
Press
MSL
hPa
Rain
since
9 am
mm
Dir
 
Spd
km/h
Gust
km/h
Spd
kts
Gust
kts
27/11:30pm 5.8 4.6 4.6 92 0.6 CALM 0 4 0 2 - - 0.0
27/11:00pm 4.9 3.5 3.7 92 0.6 CALM 0 2 0 1 - - 0.0
27/10:30pm 5.0 3.6 3.8 92 0.6 CALM 0 0 0 0 - - 0.0
27/10:00pm 4.5 2.6 3.0 90 0.7 WSW 2 4 1 2 - - 0.0
27/09:30pm 5.7 3.8 3.0 83 1.2 E 2 6 1 3 - - 0.0
27/09:00pm 6.0 4.0 0.1 66 2.6 CALM 0 4 0 2 - - 0.0
27/08:30pm 7.3 5.0 0.1 60 3.2 NNE 2 7 1 4 - - 0.0
27/08:00pm 8.8 6.5 0.3 55 3.8 E 2 11 1 6 - - 0.0
27/07:30pm 9.9 6.9 0.8 53 4.1 E 6 15 3 8 - - 0.0
27/07:00pm 11.2 7.7 1.5 51 4.5 E 9 19 5 10 - - 0.0
27/06:30pm 11.1 8.1 1.1 50 4.6 ESE 6 13 3 7 - - 0.0
27/06:00pm 12.2 9.1 1.2 47 5.2 E 7 13 4 7 - - 0.0
27/05:30pm 13.0 10.0 0.7 43 5.7 SE 6 15 3 8 - - 0.0
27/05:00pm 12.6 9.6 2.2 49 5.0 SSW 7 17 4 9 - - 0.0
27/04:30pm 13.1 10.8 2.6 49 5.1 SE 4 13 2 7 - - 0.0
27/04:00pm 13.5 10.8 3.6 51 4.9 E 7 19 4 10 - - 0.0
27/03:30pm 13.0 9.5 3.4 52 4.7 E 11 20 6 11 - - 0.0
27/03:00pm 14.9 11.6 4.6 50 5.3 SE 11 22 6 12 - - 0.0
27/02:30pm 14.5 11.7 5.3 54 4.8 SE 9 22 5 12 - - 0.0
27/02:00pm 13.6 11.4 6.0 60 4.0 SSE 7 22 4 12 - - 0.0
27/01:30pm 13.4 10.2 7.0 65 3.4 ESE 13 22 7 12 - - 0.0
27/01:00pm 13.6 11.1 6.7 63 3.7 ESE 9 20 5 11 - - 0.0
27/12:30pm 11.9 8.7 5.1 63 3.5 ESE 11 22 6 12 - - 0.0
27/12:00pm 11.9 8.4 5.3 64 3.4 ESE 13 22 7 12 - - 0.0
27/11:30am 14.2 10.5 2.5 45 5.7 S 11 20 6 11 - - 0.0
27/11:00am 13.1 9.8 4.8 57 4.2 SSE 11 19 6 10 - - 0.0
27/10:30am 12.4 10.0 5.1 61 3.7 SSE 7 13 4 7 - - 0.0
27/10:00am 11.9 9.5 5.3 64 3.4 S 7 15 4 8 - - 0.0
27/09:30am 12.8 10.1 3.7 54 4.5 SSW 7 20 4 11 - - 0.0
27/09:00am 10.5 7.8 3.5 62 3.4 WSW 7 17 4 9 - - 0.0
27/08:30am 9.6 7.2 5.2 74 2.2 WNW 7 17 4 9 - - 0.0
27/08:00am 8.3 5.6 5.8 84 1.3 W 9 19 5 10 - - 0.0
27/07:30am 5.7 4.3 5.4 98 0.1 E 2 6 1 3 - - 0.0
27/07:00am 5.1 3.9 4.7 97 0.2 CALM 0 2 0 1 - - 0.0
27/06:30am 4.8 3.6 4.4 97 0.2 CALM 0 2 0 1 - - 0.0
27/06:00am 4.7 3.4 4.3 97 0.2 CALM 0 0 0 0 - - 0.0
27/05:30am 4.8 3.2 4.5 98 0.1 N 2 7 1 4 - - 0.0
27/05:00am 5.0 3.4 4.7 98 0.1 NNW 2 6 1 3 - - 0.0
27/04:30am 5.3 3.8 5.0 98 0.1 ENE 2 7 1 4 - - 0.0
27/04:00am 5.3 3.4 5.0 98 0.1 NNE 4 9 2 5 - - 0.0
27/03:30am 5.4 3.9 5.1 98 0.1 N 2 6 1 3 - - 0.0
27/03:00am 5.5 4.0 5.2 98 0.1 NE 2 6 1 3 - - 0.0
27/02:30am 5.5 4.0 5.2 98 0.1 ENE 2 4 1 2 - - 0.0
27/02:00am 5.6 4.2 5.3 98 0.1 ENE 2 7 1 4 - - 0.0
27/01:30am 5.7 4.7 5.4 98 0.1 CALM 0 4 0 2 - - 0.0
27/01:00am 5.6 3.4 5.3 98 0.1 ESE 6 9 3 5 - - 0.0
27/12:30am 5.8 4.4 5.5 98 0.1 SE 2 4 1 2 - - 0.0
27/12:00am 5.9 4.9 5.6 98 0.1 CALM 0 4 0 2 - - 0.0
 
Date/Time
EDT
Tmp

°C
App
Tmp
°C
Dew
Point
°C
Rel
Hum
%
Delta-T

°C
Wind Press
QNH
hPa
Press
MSL
hPa
Rain
since
9 am
mm
Dir
 
Spd
km/h
Gust
km/h
Spd
kts
Gust
kts
26/11:30pm 5.9 4.9 5.5 97 0.2 CALM 0 2 0 1 - - 0.0
26/11:00pm 6.0 5.0 5.6 97 0.2 CALM 0 2 0 1 - - 0.0
26/10:30pm 6.0 4.2 5.6 97 0.2 E 4 9 2 5 - - 0.0
26/10:00pm 6.1 4.7 5.5 96 0.3 E 2 7 1 4 - - 0.0
26/09:30pm 6.2 4.4 5.5 95 0.3 E 4 11 2 6 - - 0.0
26/09:00pm 6.8 5.1 5.7 93 0.5 ESE 4 11 2 6 - - 0.0
26/08:30pm 7.0 5.3 5.9 93 0.5 ESE 4 7 2 4 - - 0.0
26/08:00pm 7.8 6.6 6.4 91 0.7 SE 2 6 1 3 - - 0.0

Latest Capital City Observations: Canberra | Sydney | Melbourne | Brisbane | Adelaide | Perth | Hobart | Darwin

Other Formats:

Comma delimited format used in spreadsheet applications
http://www.bom.gov.au/fwo/IDN60903/IDN60903.94915.axf

JavaScript Object Notation format (JSON) in row-major order
http://www.bom.gov.au/fwo/IDN60903/IDN60903.94915.json